Time;durP1;ratioP1;P1;durP2;ratioP2;P2;SDS_P1;SDS_P2;PMS_P1;PMS_P2;Temp;Humidity;BMP_temperature;BMP_pressure;BME280_temperature;BME280_humidity;BME280_pressure;Samples;Min_cycle;Max_cycle;Signal;HPM_P1;HPM_P2
2022/10/22 00:02:06;;;;;;;8.15;6.40;;;;;;;;;;5035686;28;20050;-89
2022/10/22 00:04:33;;;;;;;14.23;9.10;;;;;;;;;;5035747;28;20050;-89
2022/10/22 00:07:01;;;;;;;11.65;7.45;;;;;;;;;;5051156;28;20081;-88
2022/10/22 00:09:29;;;;;;;12.13;7.95;;;;;;;;;;5035570;28;20057;-88
2022/10/22 00:11:56;;;;;;;16.35;7.88;;;;;;;;;;5051101;28;20045;-89
2022/10/22 00:14:23;;;;;;;11.38;6.50;;;;;;;;;;5050863;28;20056;-89
2022/10/22 00:16:50;;;;;;;11.98;7.15;;;;;;;;;;5035305;28;20049;-89
2022/10/22 00:19:18;;;;;;;9.30;6.70;;;;;;;;;;5035399;28;20053;-89
2022/10/22 00:21:45;;;;;;;15.68;8.30;;;;;;;;;;5050883;28;20049;-89
2022/10/22 00:24:13;;;;;;;11.40;6.65;;;;;;;;;;5050564;28;20079;-89
2022/10/22 00:26:40;;;;;;;11.30;8.40;;;;;;;;;;5051006;28;20045;-89
2022/10/22 00:29:07;;;;;;;10.32;6.82;;;;;;;;;;5034960;28;20132;-89
2022/10/22 00:31:34;;;;;;;8.38;5.95;;;;;;;;;;5051041;28;20045;-88
2022/10/22 00:34:02;;;;;;;9.73;6.70;;;;;;;;;;5050850;28;20045;-88
2022/10/22 00:36:29;;;;;;;8.63;5.93;;;;;;;;;;5050753;28;20053;-89
2022/10/22 00:38:56;;;;;;;9.98;6.45;;;;;;;;;;5050589;28;20045;-89
2022/10/22 00:41:23;;;;;;;8.48;6.20;;;;;;;;;;5034925;28;20064;-88
2022/10/22 00:44:02;;;;;;;10.05;6.55;;;;;;;;;;5050456;28;20052;-89
2022/10/22 00:46:29;;;;;;;14.98;6.47;;;;;;;;;;5050744;28;20052;-88
2022/10/22 00:48:58;;;;;;;11.15;7.20;;;;;;;;;;5050670;28;20061;-89
2022/10/22 00:51:26;;;;;;;7.13;6.00;;;;;;;;;;5050737;28;20124;-88
2022/10/22 00:54:02;;;;;;;8.77;5.82;;;;;;;;;;5050228;28;20046;-89
2022/10/22 00:56:29;;;;;;;7.85;5.70;;;;;;;;;;5050594;28;20053;-88
2022/10/22 00:58:59;;;;;;;6.38;5.57;;;;;;;;;;5034854;28;20068;-89
2022/10/22 01:01:28;;;;;;;14.60;6.13;;;;;;;;;;5034992;28;20049;-88
2022/10/22 01:03:55;;;;;;;11.63;6.00;;;;;;;;;;5035083;28;20049;-89
2022/10/22 01:06:27;;;;;;;7.97;5.55;;;;;;;;;;5050009;28;20049;-89
2022/10/22 01:09:00;;;;;;;15.13;6.20;;;;;;;;;;5049928;28;20049;-88
2022/10/22 01:11:35;;;;;;;11.77;6.47;;;;;;;;;;5049870;28;20518;-87
2022/10/22 01:14:08;;;;;;;7.35;5.80;;;;;;;;;;5049758;28;20070;-88
2022/10/22 01:16:53;;;;;;;16.92;7.57;;;;;;;;;;5034506;28;20049;-89
2022/10/22 01:19:39;;;;;;;14.98;6.55;;;;;;;;;;5034618;28;20056;-88
2022/10/22 01:22:10;;;;;;;10.10;6.28;;;;;;;;;;5034164;28;20133;-89
2022/10/22 01:24:46;;;;;;;8.02;6.57;;;;;;;;;;5034177;28;20068;-88
2022/10/22 01:27:13;;;;;;;9.82;5.65;;;;;;;;;;5034264;28;20056;-89
2022/10/22 01:29:47;;;;;;;19.52;8.70;;;;;;;;;;5034441;28;20489;-89
2022/10/22 01:32:15;;;;;;;11.75;6.40;;;;;;;;;;5034199;28;20057;-89
2022/10/22 01:34:44;;;;;;;16.27;7.50;;;;;;;;;;5049629;28;20045;-90
2022/10/22 01:37:13;;;;;;;16.92;8.00;;;;;;;;;;5049545;28;20053;-89
2022/10/22 01:39:42;;;;;;;10.25;6.80;;;;;;;;;;5049488;28;20053;-89
2022/10/22 01:42:11;;;;;;;15.48;7.32;;;;;;;;;;5048773;28;20045;-89
2022/10/22 01:44:38;;;;;;;15.40;9.57;;;;;;;;;;5033760;28;20061;-90
2022/10/22 01:47:11;;;;;;;17.38;10.93;;;;;;;;;;5049544;28;20497;-89
2022/10/22 01:49:51;;;;;;;18.60;10.20;;;;;;;;;;5033935;28;20125;-88
2022/10/22 01:52:29;;;;;;;18.25;8.25;;;;;;;;;;5049433;28;20049;-89
2022/10/22 01:55:07;;;;;;;19.23;12.10;;;;;;;;;;5034005;28;20064;-90
2022/10/22 01:57:43;;;;;;;25.65;14.00;;;;;;;;;;5049602;28;20052;-89
2022/10/22 02:00:12;;;;;;;21.13;12.55;;;;;;;;;;5049260;28;20045;-90
2022/10/22 02:03:01;;;;;;;20.73;13.93;;;;;;;;;;5033456;28;20049;-88
2022/10/22 02:05:35;;;;;;;27.85;15.20;;;;;;;;;;5049188;28;20482;-91
2022/10/22 02:08:08;;;;;;;13.52;12.10;;;;;;;;;;5049068;28;20049;-88
2022/10/22 02:10:40;;;;;;;20.63;13.18;;;;;;;;;;5049267;28;20421;-89
2022/10/22 02:13:09;;;;;;;14.38;10.80;;;;;;;;;;5033870;28;20116;-89
2022/10/22 02:15:38;;;;;;;17.13;11.80;;;;;;;;;;5033564;28;20052;-89
2022/10/22 02:18:06;;;;;;;18.65;13.38;;;;;;;;;;5050186;28;20053;-92
2022/10/22 02:20:34;;;;;;;25.50;14.43;;;;;;;;;;5050005;28;20057;-88
2022/10/22 02:23:01;;;;;;;21.52;11.55;;;;;;;;;;5049118;28;20057;-89
2022/10/22 02:25:30;;;;;;;20.85;14.30;;;;;;;;;;5050613;28;20056;-90
2022/10/22 02:27:57;;;;;;;25.98;14.23;;;;;;;;;;5048992;28;20061;-89
2022/10/22 02:30:24;;;;;;;18.35;12.43;;;;;;;;;;5049245;28;20045;-90
2022/10/22 02:32:57;;;;;;;16.38;11.77;;;;;;;;;;5033585;28;20045;-88
2022/10/22 02:35:26;;;;;;;16.88;11.65;;;;;;;;;;5033395;28;20045;-88
2022/10/22 02:37:54;;;;;;;25.25;14.88;;;;;;;;;;5033778;28;20045;-90
2022/10/22 02:40:22;;;;;;;26.00;15.13;;;;;;;;;;5048690;28;20485;-89
2022/10/22 02:42:50;;;;;;;26.13;13.80;;;;;;;;;;5049031;28;20052;-90
2022/10/22 02:45:18;;;;;;;13.77;10.35;;;;;;;;;;5048954;28;20056;-89
2022/10/22 02:47:45;;;;;;;14.50;9.18;;;;;;;;;;5033462;28;20140;-89
2022/10/22 02:50:12;;;;;;;18.13;12.90;;;;;;;;;;5033480;28;20056;-89
2022/10/22 02:52:39;;;;;;;13.50;11.25;;;;;;;;;;5033731;28;20049;-89
2022/10/22 02:55:08;;;;;;;19.73;13.48;;;;;;;;;;5052640;28;20147;-88
2022/10/22 02:57:35;;;;;;;29.42;17.20;;;;;;;;;;5052845;28;20045;-87
2022/10/22 03:00:02;;;;;;;23.10;16.27;;;;;;;;;;5037154;28;20077;-90
2022/10/22 03:02:29;;;;;;;22.70;15.95;;;;;;;;;;5052865;28;20041;-88
2022/10/22 03:04:56;;;;;;;23.23;16.70;;;;;;;;;;5052242;28;20053;-90
2022/10/22 03:07:24;;;;;;;23.55;15.13;;;;;;;;;;5052455;28;20113;-90
2022/10/22 03:09:51;;;;;;;23.45;14.57;;;;;;;;;;5036699;28;20052;-89
2022/10/22 03:12:18;;;;;;;19.02;13.02;;;;;;;;;;5052701;28;20142;-90
2022/10/22 03:14:45;;;;;;;18.52;12.50;;;;;;;;;;5052259;28;20095;-89
2022/10/22 03:17:13;;;;;;;19.33;11.68;;;;;;;;;;5052339;28;20402;-91
2022/10/22 03:19:41;;;;;;;17.77;13.30;;;;;;;;;;5052233;28;20049;-90
2022/10/22 03:22:15;;;;;;;17.30;11.98;;;;;;;;;;5052084;28;20052;-89
2022/10/22 03:24:43;;;;;;;18.00;13.10;;;;;;;;;;5036505;28;20049;-90
2022/10/22 03:27:12;;;;;;;18.67;11.30;;;;;;;;;;5052512;28;20049;-90
2022/10/22 03:29:39;;;;;;;22.02;12.93;;;;;;;;;;5052199;28;20581;-91
2022/10/22 03:32:07;;;;;;;17.08;12.82;;;;;;;;;;5051837;28;20048;-89
2022/10/22 03:34:34;;;;;;;17.48;13.50;;;;;;;;;;5051784;28;20046;-89
2022/10/22 03:37:01;;;;;;;20.25;13.38;;;;;;;;;;5036310;28;20569;-89
2022/10/22 03:39:30;;;;;;;17.73;12.15;;;;;;;;;;5036215;28;20057;-89
2022/10/22 03:41:57;;;;;;;14.65;11.88;;;;;;;;;;5051793;28;20056;-89
2022/10/22 03:44:25;;;;;;;15.63;12.40;;;;;;;;;;5036794;28;20072;-91
2022/10/22 03:46:52;;;;;;;16.13;12.10;;;;;;;;;;5051728;28;20049;-91
2022/10/22 03:49:23;;;;;;;14.55;10.55;;;;;;;;;;5051227;28;20045;-90
2022/10/22 03:51:50;;;;;;;13.60;11.15;;;;;;;;;;5036006;28;20076;-89
2022/10/22 03:54:18;;;;;;;15.68;10.90;;;;;;;;;;5051368;28;20045;-89
2022/10/22 03:56:45;;;;;;;12.55;10.90;;;;;;;;;;5036069;28;20054;-89
2022/10/22 03:59:12;;;;;;;12.02;10.73;;;;;;;;;;5051441;28;20053;-90
2022/10/22 04:01:39;;;;;;;13.80;10.48;;;;;;;;;;5051219;28;20053;-87
2022/10/22 04:04:07;;;;;;;16.92;10.30;;;;;;;;;;5050905;28;20049;-90
2022/10/22 04:06:34;;;;;;;13.57;10.75;;;;;;;;;;5051207;28;20050;-89
2022/10/22 04:09:02;;;;;;;15.13;9.77;;;;;;;;;;5051308;28;20140;-89
2022/10/22 04:11:29;;;;;;;13.52;10.38;;;;;;;;;;5035636;28;20158;-89
2022/10/22 04:13:56;;;;;;;15.52;9.82;;;;;;;;;;5051094;28;20060;-88
2022/10/22 04:16:24;;;;;;;11.90;10.32;;;;;;;;;;5035545;28;20041;-88
2022/10/22 04:18:56;;;;;;;12.73;10.05;;;;;;;;;;5050547;28;20574;-88
2022/10/22 04:21:24;;;;;;;16.60;10.82;;;;;;;;;;5050768;28;20053;-89
2022/10/22 04:23:52;;;;;;;19.15;12.02;;;;;;;;;;5050918;28;20063;-88
2022/10/22 04:26:20;;;;;;;20.45;14.88;;;;;;;;;;5050868;28;20060;-88
2022/10/22 04:28:50;;;;;;;26.00;16.85;;;;;;;;;;5050493;28;20049;-87
2022/10/22 04:31:18;;;;;;;21.73;12.75;;;;;;;;;;5050725;28;20042;-87
2022/10/22 04:33:46;;;;;;;12.68;10.63;;;;;;;;;;5050684;28;20088;-88
2022/10/22 04:36:15;;;;;;;14.15;9.88;;;;;;;;;;5035054;28;20213;-88
2022/10/22 04:38:43;;;;;;;13.60;10.05;;;;;;;;;;5050585;28;20045;-88
2022/10/22 04:41:17;;;;;;;8.90;7.95;;;;;;;;;;5050538;28;20060;-87
2022/10/22 04:43:45;;;;;;;11.00;7.95;;;;;;;;;;5050630;28;20053;-88
2022/10/22 04:46:13;;;;;;;14.15;8.35;;;;;;;;;;5050573;28;20049;-87
2022/10/22 04:48:41;;;;;;;8.00;5.95;;;;;;;;;;5050360;28;20091;-87
2022/10/22 04:51:10;;;;;;;9.93;7.85;;;;;;;;;;5050555;28;20047;-87
2022/10/22 04:53:39;;;;;;;4.82;2.70;;;;;;;;;;5034895;28;20049;-87
2022/10/22 04:56:15;;;;;;;2.33;1.83;;;;;;;;;;5050117;28;20064;-88
2022/10/22 04:58:43;;;;;;;4.90;3.00;;;;;;;;;;5050393;28;20485;-89
2022/10/22 05:01:11;;;;;;;4.20;3.80;;;;;;;;;;5050047;28;20156;-89
2022/10/22 05:03:39;;;;;;;5.80;3.97;;;;;;;;;;5050201;28;20062;-89
2022/10/22 05:06:06;;;;;;;4.03;3.72;;;;;;;;;;5049823;28;20049;-89
2022/10/22 05:08:34;;;;;;;4.88;3.25;;;;;;;;;;5034662;28;20049;-88
2022/10/22 05:11:01;;;;;;;4.75;4.10;;;;;;;;;;5034271;28;20068;-90
2022/10/22 05:13:29;;;;;;;6.60;4.53;;;;;;;;;;5034545;28;20061;-90
2022/10/22 05:16:00;;;;;;;4.10;3.70;;;;;;;;;;5049305;28;20049;-90
2022/10/22 05:18:27;;;;;;;4.15;3.70;;;;;;;;;;5034176;28;20045;-90
2022/10/22 05:20:54;;;;;;;4.50;3.78;;;;;;;;;;5049623;28;20052;-90
2022/10/22 05:23:21;;;;;;;5.63;3.67;;;;;;;;;;5034451;28;20061;-90
2022/10/22 05:25:49;;;;;;;5.75;3.92;;;;;;;;;;5049889;28;20064;-90
2022/10/22 05:28:16;;;;;;;18.58;4.40;;;;;;;;;;5050021;28;20045;-91
2022/10/22 05:30:52;;;;;;;10.93;3.95;;;;;;;;;;5050196;28;20052;-92
2022/10/22 05:33:21;;;;;;;6.88;3.38;;;;;;;;;;5034174;28;20050;-90
2022/10/22 05:35:50;;;;;;;5.15;3.88;;;;;;;;;;5034447;28;20045;-91
2022/10/22 05:38:17;;;;;;;5.00;3.00;;;;;;;;;;5034494;28;20505;-92
2022/10/22 05:40:45;;;;;;;6.40;3.40;;;;;;;;;;5049665;28;20065;-91
2022/10/22 05:43:12;;;;;;;10.70;4.80;;;;;;;;;;5034885;28;20041;-90
2022/10/22 05:45:40;;;;;;;5.53;4.97;;;;;;;;;;5034552;28;20049;-90
2022/10/22 05:48:08;;;;;;;4.45;3.28;;;;;;;;;;5035330;28;20468;-91
2022/10/22 05:50:36;;;;;;;4.97;2.80;;;;;;;;;;5033990;28;20095;-90
2022/10/22 05:53:04;;;;;;;5.28;3.05;;;;;;;;;;5049235;28;20148;-92
2022/10/22 05:55:35;;;;;;;7.40;3.20;;;;;;;;;;5034952;28;20049;-91
2022/10/22 05:58:03;;;;;;;7.13;2.85;;;;;;;;;;5050697;28;20054;-91
2022/10/22 06:00:30;;;;;;;5.72;2.97;;;;;;;;;;5049819;28;20057;-91
2022/10/22 06:02:58;;;;;;;3.70;3.15;;;;;;;;;;5049318;28;20056;-91
2022/10/22 06:05:25;;;;;;;4.82;2.70;;;;;;;;;;5049640;28;20052;-91
2022/10/22 06:07:53;;;;;;;4.53;2.72;;;;;;;;;;5034154;28;20053;-91
2022/10/22 06:10:21;;;;;;;3.67;2.78;;;;;;;;;;5033773;28;20057;-91
2022/10/22 06:12:48;;;;;;;3.55;3.08;;;;;;;;;;5033591;28;20056;-91
2022/10/22 06:15:17;;;;;;;5.40;3.35;;;;;;;;;;5049251;28;20053;-91
2022/10/22 06:17:45;;;;;;;4.30;3.90;;;;;;;;;;5049310;28;20049;-91
2022/10/22 06:20:12;;;;;;;3.60;3.30;;;;;;;;;;5033942;28;20052;-91
2022/10/22 06:22:39;;;;;;;5.07;3.28;;;;;;;;;;5049102;28;20056;-91
2022/10/22 06:25:07;;;;;;;6.30;3.20;;;;;;;;;;5033891;28;20473;-92
2022/10/22 06:27:34;;;;;;;7.35;5.45;;;;;;;;;;5033765;28;20061;-92
2022/10/22 06:30:02;;;;;;;4.85;3.63;;;;;;;;;;5053454;28;20064;-92
2022/10/22 06:32:29;;;;;;;5.43;3.75;;;;;;;;;;5037957;28;20512;-91
2022/10/22 06:34:56;;;;;;;6.13;4.40;;;;;;;;;;5053713;28;20085;-91
2022/10/22 06:37:23;;;;;;;6.25;3.67;;;;;;;;;;5053381;28;20045;-91
2022/10/22 06:39:51;;;;;;;5.05;3.70;;;;;;;;;;5053211;28;20485;-91
2022/10/22 06:42:18;;;;;;;10.30;5.32;;;;;;;;;;5053023;28;20068;-93
2022/10/22 06:44:47;;;;;;;8.35;5.57;;;;;;;;;;5037484;28;20049;-92
2022/10/22 06:47:14;;;;;;;8.15;5.45;;;;;;;;;;5037406;28;20046;-92
2022/10/22 06:49:41;;;;;;;5.47;4.97;;;;;;;;;;5053018;28;20050;-92
2022/10/22 06:52:09;;;;;;;5.07;4.68;;;;;;;;;;5037495;28;20053;-91
2022/10/22 06:54:36;;;;;;;9.50;4.68;;;;;;;;;;5052746;28;20049;-91
2022/10/22 06:57:04;;;;;;;15.38;5.43;;;;;;;;;;5037309;28;20053;-92
2022/10/22 06:59:31;;;;;;;17.05;8.40;;;;;;;;;;5047945;28;20060;-90
2022/10/22 07:02:01;;;;;;;23.08;13.48;;;;;;;;;;5065180;28;20060;-91
2022/10/22 07:04:28;;;;;;;21.67;13.95;;;;;;;;;;5053402;28;20086;-91
2022/10/22 07:06:56;;;;;;;22.98;13.95;;;;;;;;;;5053178;28;20167;-92
2022/10/22 07:09:23;;;;;;;20.40;11.32;;;;;;;;;;5037521;28;20053;-90
2022/10/22 07:11:50;;;;;;;11.15;8.65;;;;;;;;;;5038126;28;20049;-91
2022/10/22 07:14:18;;;;;;;7.40;6.25;;;;;;;;;;5052924;28;20052;-91
2022/10/22 07:16:45;;;;;;;9.30;6.18;;;;;;;;;;5037398;28;20085;-90
2022/10/22 07:19:13;;;;;;;9.07;6.68;;;;;;;;;;5037472;28;20087;-91
2022/10/22 07:21:40;;;;;;;8.07;5.63;;;;;;;;;;5052553;28;20510;-91
2022/10/22 07:24:07;;;;;;;7.85;5.47;;;;;;;;;;5053273;28;20537;-91
2022/10/22 07:26:35;;;;;;;8.15;5.60;;;;;;;;;;5037991;28;20057;-91
2022/10/22 07:29:03;;;;;;;8.38;5.18;;;;;;;;;;5038019;28;20482;-91
2022/10/22 07:31:32;;;;;;;15.05;7.78;;;;;;;;;;5052315;28;20049;-92
2022/10/22 07:33:59;;;;;;;8.93;6.38;;;;;;;;;;5052375;28;20041;-92
2022/10/22 07:36:27;;;;;;;7.82;6.05;;;;;;;;;;5052644;28;20054;-92
2022/10/22 07:38:55;;;;;;;8.48;5.82;;;;;;;;;;5036516;28;20077;-91
2022/10/22 07:41:25;;;;;;;8.38;6.10;;;;;;;;;;5051618;28;20050;-91
2022/10/22 07:43:52;;;;;;;6.63;5.90;;;;;;;;;;5052506;28;20052;-91
2022/10/22 07:46:19;;;;;;;6.82;5.65;;;;;;;;;;5052384;28;20156;-91
2022/10/22 07:48:46;;;;;;;9.23;7.53;;;;;;;;;;5039863;28;20099;-91
2022/10/22 07:51:16;;;;;;;7.95;7.30;;;;;;;;;;5054746;28;20060;-92
2022/10/22 07:53:46;;;;;;;8.32;5.80;;;;;;;;;;5055747;28;20045;-91
2022/10/22 07:56:13;;;;;;;6.40;5.75;;;;;;;;;;5058292;28;20053;-92
2022/10/22 07:58:40;;;;;;;6.07;5.40;;;;;;;;;;5045035;28;20046;-91
2022/10/22 08:01:07;;;;;;;4.57;3.88;;;;;;;;;;5055724;28;20131;-91
2022/10/22 08:03:37;;;;;;;7.15;3.83;;;;;;;;;;5040046;28;20045;-91
2022/10/22 08:06:05;;;;;;;4.82;3.13;;;;;;;;;;5057631;28;20049;-92
2022/10/22 08:08:33;;;;;;;2.78;2.30;;;;;;;;;;5055194;28;20053;-90
2022/10/22 08:11:01;;;;;;;7.40;3.17;;;;;;;;;;5039097;28;20099;-90
2022/10/22 08:13:31;;;;;;;11.68;9.43;;;;;;;;;;5055420;28;20576;-92
2022/10/22 08:15:59;;;;;;;5.70;4.90;;;;;;;;;;5053119;28;20049;-91
2022/10/22 08:18:27;;;;;;;12.35;8.88;;;;;;;;;;5053176;28;20056;-90
2022/10/22 08:20:54;;;;;;;53.35;32.95;;;;;;;;;;5052263;28;20056;-92
2022/10/22 08:23:21;;;;;;;14.55;9.07;;;;;;;;;;5051529;28;20067;-89
2022/10/22 08:25:54;;;;;;;6.37;5.27;;;;;;;;;;5035619;28;20045;-90
2022/10/22 08:28:21;;;;;;;5.03;1.88;;;;;;;;;;5051448;28;20111;-90
2022/10/22 08:30:48;;;;;;;8.13;6.47;;;;;;;;;;5051271;28;20049;-91
2022/10/22 08:33:16;;;;;;;3.85;2.20;;;;;;;;;;5035368;28;20045;-90
2022/10/22 08:35:47;;;;;;;0.90;0.80;;;;;;;;;;5050977;28;20045;-90
2022/10/22 08:38:14;;;;;;;1.98;1.15;;;;;;;;;;5051012;28;20144;-91
2022/10/22 08:40:42;;;;;;;2.78;2.28;;;;;;;;;;5050732;28;20050;-89
2022/10/22 08:43:21;;;;;;;6.38;5.80;;;;;;;;;;5051326;28;20045;-91
2022/10/22 08:46:03;;;;;;;64.53;42.33;;;;;;;;;;5050539;28;20061;-92
2022/10/22 08:48:40;;;;;;;36.25;25.27;;;;;;;;;;5051909;28;20045;-92
2022/10/22 08:51:10;;;;;;;30.90;24.27;;;;;;;;;;5050519;28;20478;-92
2022/10/22 08:53:49;;;;;;;15.20;13.40;;;;;;;;;;5050609;28;20490;-91
2022/10/22 08:56:17;;;;;;;3.75;3.45;;;;;;;;;;5050460;28;20049;-92
2022/10/22 08:58:56;;;;;;;5.80;3.65;;;;;;;;;;5051336;28;20049;-95
2022/10/22 09:01:40;;;;;;;7.15;4.10;;;;;;;;;;5052561;28;20053;-94
2022/10/22 09:04:13;;;;;;;0.70;0.70;;;;;;;;;;5036163;28;20056;-91
2022/10/22 09:06:43;;;;;;;1.65;0.57;;;;;;;;;;5051018;28;20132;-93
2022/10/22 09:09:12;;;;;;;0.35;0.35;;;;;;;;;;5050810;28;20053;-90
2022/10/22 09:11:40;;;;;;;1.45;0.28;;;;;;;;;;5051671;28;20054;-92
2022/10/22 09:14:11;;;;;;;3.60;0.55;;;;;;;;;;5050596;28;20046;-93
2022/10/22 09:16:48;;;;;;;0.43;0.20;;;;;;;;;;5051937;28;20081;-90
2022/10/22 09:19:35;;;;;;;1.65;0.40;;;;;;;;;;5056682;28;20041;-91
2022/10/22 09:22:17;;;;;;;0.60;0.40;;;;;;;;;;5051884;28;20072;-89
2022/10/22 09:24:46;;;;;;;0.40;0.30;;;;;;;;;;5050949;28;20418;-93
2022/10/22 09:27:18;;;;;;;0.45;0.20;;;;;;;;;;5050600;28;20383;-93
2022/10/22 09:29:46;;;;;;;2.47;0.20;;;;;;;;;;5051168;28;20060;-92
2022/10/22 09:32:15;;;;;;;0.20;0.20;;;;;;;;;;5051419;28;20059;-94
2022/10/22 09:34:46;;;;;;;1.33;0.20;;;;;;;;;;5036553;28;20060;-91
2022/10/22 09:37:16;;;;;;;2.00;0.20;;;;;;;;;;5051748;28;20049;-91
2022/10/22 09:39:45;;;;;;;3.42;0.52;;;;;;;;;;5038974;28;20053;-93
2022/10/22 09:42:14;;;;;;;0.45;0.30;;;;;;;;;;5053038;28;20072;-95
2022/10/22 09:44:42;;;;;;;2.08;0.30;;;;;;;;;;5052304;28;20050;-93
2022/10/22 09:47:53;;;;;;;0.70;0.25;;;;;;;;;;5051665;28;20050;-92
2022/10/22 09:50:44;;;;;;;3.42;1.55;;;;;;;;;;4976458;28;20051;-92
2022/10/22 09:53:39;;;;;;;2.08;1.30;;;;;;;;;;4976236;28;20054;-93
2022/10/22 09:56:08;;;;;;;1.25;0.55;;;;;;;;;;5025017;28;20068;-93
2022/10/22 09:58:43;;;;;;;2.53;2.25;;;;;;;;;;5038887;28;20055;-93
2022/10/22 10:01:15;;;;;;;1.15;1.15;;;;;;;;;;5037530;28;20128;-92
2022/10/22 10:03:43;;;;;;;2.27;1.00;;;;;;;;;;5037458;28;20132;-92
2022/10/22 10:06:11;;;;;;;1.42;1.33;;;;;;;;;;5052825;28;20052;-93
2022/10/22 10:08:38;;;;;;;1.60;1.00;;;;;;;;;;5035711;28;20493;-90
2022/10/22 10:11:09;;;;;;;1.80;0.98;;;;;;;;;;5037826;28;20060;-93
2022/10/22 10:13:50;;;;;;;3.00;0.50;;;;;;;;;;5052962;28;20113;-94
2022/10/22 10:16:39;;;;;;;5.60;1.02;;;;;;;;;;5053527;28;20060;-93
2022/10/22 10:19:15;;;;;;;1.55;0.30;;;;;;;;;;5051784;28;20421;-94
2022/10/22 10:21:49;;;;;;;2.00;0.38;;;;;;;;;;5053029;28;20049;-93
2022/10/22 10:24:16;;;;;;;0.20;0.20;;;;;;;;;;5052336;28;20136;-91
2022/10/22 10:26:51;;;;;;;0.57;0.30;;;;;;;;;;5036922;28;20060;-93
2022/10/22 10:29:28;;;;;;;0.35;0.35;;;;;;;;;;5035572;28;20056;-93
2022/10/22 10:32:11;;;;;;;2.03;0.40;;;;;;;;;;5051182;28;20053;-93
2022/10/22 10:34:53;;;;;;;1.98;0.30;;;;;;;;;;5036774;28;20053;-94
2022/10/22 10:37:23;;;;;;;1.65;0.20;;;;;;;;;;5051790;28;20049;-91
2022/10/22 10:40:14;;;;;;;0.73;0.45;;;;;;;;;;5053909;28;20045;-93
2022/10/22 10:42:48;;;;;;;2.30;0.40;;;;;;;;;;5051927;28;20045;-92
2022/10/22 10:45:15;;;;;;;1.33;0.30;;;;;;;;;;5053000;28;20060;-90
2022/10/22 10:47:52;;;;;;;1.30;0.45;;;;;;;;;;5035588;28;20053;-91
2022/10/22 10:50:38;;;;;;;0.80;0.40;;;;;;;;;;5037212;28;20049;-92
2022/10/22 10:53:26;;;;;;;1.00;0.55;;;;;;;;;;5051816;28;20045;-93
2022/10/22 10:56:03;;;;;;;0.52;0.30;;;;;;;;;;5052108;28;20091;-93
2022/10/22 10:58:39;;;;;;;0.82;0.40;;;;;;;;;;5037396;28;20042;-91
2022/10/22 11:01:12;;;;;;;2.40;0.47;;;;;;;;;;5050890;28;20053;-93
2022/10/22 11:03:48;;;;;;;1.70;0.32;;;;;;;;;;5036372;28;20053;-93
2022/10/22 11:06:16;;;;;;;0.40;0.40;;;;;;;;;;5051402;28;20060;-94
2022/10/22 11:08:54;;;;;;;4.93;0.52;;;;;;;;;;5050615;28;20144;-92
2022/10/22 11:11:42;;;;;;;1.55;0.30;;;;;;;;;;5035333;28;20076;-93
2022/10/22 11:14:25;;;;;;;3.30;0.82;;;;;;;;;;5052750;28;20056;-93
2022/10/22 11:17:02;;;;;;;2.08;0.57;;;;;;;;;;5038532;28;20049;-92
2022/10/22 11:19:29;;;;;;;;;;;;;;;;;;5055515;28;20521;-91
2022/10/22 11:22:23;;;;;;;0.40;0.40;;;;;;;;;;5039189;28;19928;-94
2022/10/22 11:24:58;;;;;;;10.02;0.80;;;;;;;;;;5055057;28;20524;-91
2022/10/22 11:27:38;;;;;;;0.50;0.50;;;;;;;;;;5039450;28;20058;-94
2022/10/22 11:30:12;;;;;;;1.98;0.40;;;;;;;;;;5038926;28;20304;-93
2022/10/22 11:32:41;;;;;;;1.55;0.70;;;;;;;;;;5055418;28;20049;-89
2022/10/22 11:35:15;;;;;;;1.17;0.60;;;;;;;;;;5054438;28;20049;-92
2022/10/22 11:37:43;;;;;;;1.33;0.70;;;;;;;;;;5057145;28;20046;-93
2022/10/22 11:40:16;;;;;;;1.20;0.50;;;;;;;;;;5056224;28;20049;-91
2022/10/22 11:42:46;;;;;;;2.30;1.00;;;;;;;;;;5062545;28;20520;-94
2022/10/22 11:45:13;;;;;;;2.35;0.68;;;;;;;;;;5041577;28;20077;-94
2022/10/22 11:47:57;;;;;;;2.72;0.77;;;;;;;;;;5056087;28;20478;-93
2022/10/22 11:50:26;;;;;;;4.78;0.95;;;;;;;;;;5054002;28;20478;-95
2022/10/22 11:52:56;;;;;;;1.88;1.05;;;;;;;;;;5055835;28;20076;-92
2022/10/22 11:55:47;;;;;;;1.38;0.70;;;;;;;;;;5037760;28;20077;-93
2022/10/22 11:58:33;;;;;;;1.50;0.98;;;;;;;;;;5033039;28;20056;-94
2022/10/22 12:01:06;;;;;;;11.77;1.30;;;;;;;;;;5039619;28;20053;-94
2022/10/22 12:03:34;;;;;;;3.03;1.00;;;;;;;;;;5055455;28;20060;-89
2022/10/22 12:06:04;;;;;;;5.57;0.90;;;;;;;;;;5053844;28;20045;-93
2022/10/22 12:08:32;;;;;;;1.40;0.60;;;;;;;;;;5037990;28;20489;-93
2022/10/22 12:11:13;;;;;;;1.40;0.85;;;;;;;;;;5038140;28;20516;-93
2022/10/22 12:13:59;;;;;;;2.70;1.00;;;;;;;;;;5037215;28;20064;-93
2022/10/22 12:16:27;;;;;;;1.60;0.90;;;;;;;;;;5036858;28;20045;-93
2022/10/22 12:19:24;;;;;;;2.47;0.88;;;;;;;;;;5037965;28;20054;-92
2022/10/22 12:21:57;;;;;;;1.52;0.80;;;;;;;;;;5053265;28;20045;-93
2022/10/22 12:24:25;;;;;;;7.45;1.70;;;;;;;;;;5053721;28;20060;-94
2022/10/22 12:26:52;;;;;;;1.17;0.90;;;;;;;;;;5037375;28;20421;-92
2022/10/22 12:29:25;;;;;;;1.83;0.65;;;;;;;;;;5037771;28;20434;-94
2022/10/22 12:31:53;;;;;;;1.90;1.00;;;;;;;;;;5052232;28;20050;-93
2022/10/22 12:34:22;;;;;;;6.13;1.10;;;;;;;;;;5052545;28;20049;-93
2022/10/22 12:36:50;;;;;;;2.75;0.70;;;;;;;;;;5036631;28;20494;-93
2022/10/22 12:39:19;;;;;;;1.50;0.80;;;;;;;;;;5037412;28;20059;-92
2022/10/22 12:41:46;;;;;;;3.50;0.80;;;;;;;;;;5055140;28;20061;-94
2022/10/22 12:44:15;;;;;;;5.80;1.13;;;;;;;;;;5052902;28;20053;-93
2022/10/22 12:46:43;;;;;;;2.83;0.80;;;;;;;;;;5039112;28;20516;-93
2022/10/22 12:49:14;;;;;;;5.25;0.77;;;;;;;;;;5052725;28;20133;-94
2022/10/22 12:51:42;;;;;;;2.72;0.90;;;;;;;;;;5035610;28;20508;-94
2022/10/22 12:54:12;;;;;;;1.00;0.82;;;;;;;;;;5052444;28;20049;-93
2022/10/22 12:56:40;;;;;;;5.05;0.85;;;;;;;;;;5037848;28;20465;-93
2022/10/22 12:59:13;;;;;;;2.72;0.80;;;;;;;;;;5035849;28;20482;-93
2022/10/22 13:01:41;;;;;;;3.75;1.13;;;;;;;;;;5051630;28;20053;-93
2022/10/22 13:04:12;;;;;;;4.75;0.70;;;;;;;;;;5036190;28;20055;-93
2022/10/22 13:06:43;;;;;;;1.30;0.55;;;;;;;;;;5052327;28;20052;-92
2022/10/22 13:09:20;;;;;;;7.82;1.13;;;;;;;;;;5051611;28;20057;-93
2022/10/22 13:11:56;;;;;;;3.13;0.77;;;;;;;;;;5035871;28;20053;-89
2022/10/22 13:14:28;;;;;;;1.52;0.70;;;;;;;;;;5050783;28;20046;-92
2022/10/22 13:17:02;;;;;;;3.47;0.70;;;;;;;;;;5051557;28;20062;-93
2022/10/22 13:19:40;;;;;;;3.95;0.90;;;;;;;;;;5053064;28;20045;-93
2022/10/22 13:22:22;;;;;;;4.00;0.88;;;;;;;;;;5035090;28;20046;-92
2022/10/22 13:24:50;;;;;;;7.18;1.00;;;;;;;;;;5052077;28;20060;-92
2022/10/22 13:27:17;;;;;;;4.72;1.23;;;;;;;;;;5053018;28;20136;-94
2022/10/22 13:29:45;;;;;;;4.45;1.10;;;;;;;;;;5036265;28;20517;-93
2022/10/22 13:32:41;;;;;;;3.05;0.70;;;;;;;;;;5051070;28;20065;-94
2022/10/22 13:35:12;;;;;;;2.97;0.90;;;;;;;;;;5022265;28;20068;-93
2022/10/22 13:37:39;;;;;;;2.60;0.65;;;;;;;;;;5033690;28;20046;-94
2022/10/22 13:40:13;;;;;;;2.67;0.77;;;;;;;;;;5050393;28;20060;-94
2022/10/22 13:42:40;;;;;;;;;;;;;;;;;;5034525;28;20056;-93
2022/10/22 13:45:08;;;;;;;2.70;1.20;;;;;;;;;;5033868;28;19925;-93
2022/10/22 13:47:35;;;;;;;1.58;1.10;;;;;;;;;;5050417;28;20049;-94
2022/10/22 13:50:04;;;;;;;8.65;1.65;;;;;;;;;;5050801;28;20497;-93
2022/10/22 13:52:34;;;;;;;5.32;1.10;;;;;;;;;;5050326;28;20060;-94
2022/10/22 13:55:02;;;;;;;4.03;0.93;;;;;;;;;;5035421;28;20051;-90
2022/10/22 13:57:29;;;;;;;2.83;0.95;;;;;;;;;;5051841;28;20482;-94
2022/10/22 13:59:57;;;;;;;4.10;0.90;;;;;;;;;;5056671;28;20101;-93
2022/10/22 14:02:24;;;;;;;3.95;0.80;;;;;;;;;;5065769;28;20510;-93
2022/10/22 14:04:51;;;;;;;1.48;0.88;;;;;;;;;;5052670;28;20144;-94
2022/10/22 14:07:18;;;;;;;2.83;0.75;;;;;;;;;;5036574;28;20057;-94
2022/10/22 14:09:46;;;;;;;4.30;0.90;;;;;;;;;;5049273;28;20148;-93
2022/10/22 14:12:15;;;;;;;5.75;0.82;;;;;;;;;;5053718;28;20406;-94
2022/10/22 14:14:42;;;;;;;2.40;0.93;;;;;;;;;;5036055;28;20068;-93
2022/10/22 14:17:15;;;;;;;1.98;0.93;;;;;;;;;;5034744;28;20053;-92
2022/10/22 14:19:44;;;;;;;2.00;0.88;;;;;;;;;;5051691;28;20049;-93
2022/10/22 14:22:16;;;;;;;3.33;0.80;;;;;;;;;;5052122;28;20049;-93
2022/10/22 14:24:43;;;;;;;3.38;0.80;;;;;;;;;;5049371;28;20061;-93
2022/10/22 14:27:12;;;;;;;2.33;0.60;;;;;;;;;;5051098;28;20132;-94
2022/10/22 14:29:39;;;;;;;3.95;0.68;;;;;;;;;;5034508;28;20132;-92
2022/10/22 14:32:14;;;;;;;2.88;0.88;;;;;;;;;;5049844;28;20049;-93
2022/10/22 14:34:41;;;;;;;4.05;0.82;;;;;;;;;;5050040;28;20061;-93
2022/10/22 14:37:14;;;;;;;3.83;0.88;;;;;;;;;;5049933;28;20050;-92
2022/10/22 14:39:42;;;;;;;1.88;0.65;;;;;;;;;;5049626;28;20045;-94
2022/10/22 14:42:15;;;;;;;2.15;0.75;;;;;;;;;;5049635;28;20528;-94
2022/10/22 14:44:42;;;;;;;2.58;0.88;;;;;;;;;;5050506;28;20059;-94
2022/10/22 14:47:10;;;;;;;14.48;1.33;;;;;;;;;;5050457;28;20042;-94
2022/10/22 14:49:37;;;;;;;4.05;1.50;;;;;;;;;;5053950;28;20061;-93
2022/10/22 14:52:05;;;;;;;6.78;1.60;;;;;;;;;;5053068;28;20482;-93
2022/10/22 14:54:33;;;;;;;2.38;0.90;;;;;;;;;;5053833;28;20099;-93
2022/10/22 14:57:02;;;;;;;4.57;1.80;;;;;;;;;;5054045;28;20053;-92